createdAt,value
2022-08-23T00:02:01.011Z,21.35
2022-08-23T00:04:37.138Z,21.51
2022-08-23T00:07:08.433Z,21.47
2022-08-23T00:09:35.637Z,21.25
2022-08-23T00:12:22.667Z,21.42
2022-08-23T00:14:57.294Z,21.27
2022-08-23T00:17:34.642Z,21.47
2022-08-23T00:20:08.318Z,21.51
2022-08-23T00:22:36.880Z,21.40
2022-08-23T00:25:09.975Z,21.30
2022-08-23T00:27:37.970Z,21.34
2022-08-23T00:30:22.186Z,21.34
2022-08-23T00:32:51.701Z,21.37
2022-08-23T00:35:27.532Z,21.33
2022-08-23T00:38:32.028Z,21.56
2022-08-23T00:40:53.241Z,21.39
2022-08-23T00:43:47.598Z,21.56
2022-08-23T00:47:23.843Z,21.45
2022-08-23T00:50:23.849Z,21.31
2022-08-23T00:53:08.652Z,21.21
2022-08-23T00:55:37.025Z,21.21
2022-08-23T00:58:04.471Z,21.18
2022-08-23T01:00:34.437Z,20.95
2022-08-23T01:03:07.067Z,21.25
2022-08-23T01:06:06.599Z,21.29
2022-08-23T01:08:37.852Z,21.46
2022-08-23T01:11:18.951Z,21.53
2022-08-23T01:13:55.210Z,21.63
2022-08-23T01:16:51.136Z,21.63
2022-08-23T01:19:48.530Z,21.59
2022-08-23T01:23:02.703Z,21.49
2022-08-23T01:25:33.981Z,21.62
2022-08-23T01:28:01.457Z,21.60
2022-08-23T01:30:32.658Z,21.75
2022-08-23T01:33:05.522Z,21.79
2022-08-23T01:35:42.680Z,21.88
2022-08-23T01:38:13.179Z,21.70
2022-08-23T01:40:40.941Z,21.85
2022-08-23T01:43:13.618Z,21.76
2022-08-23T01:45:44.123Z,21.75
2022-08-23T01:48:10.986Z,21.58
2022-08-23T01:53:14.382Z,22.01
2022-08-23T01:55:48.458Z,22.01
2022-08-23T01:58:15.410Z,21.91
2022-08-23T02:00:45.988Z,21.92
2022-08-23T02:03:13.497Z,21.89
2022-08-23T02:05:42.745Z,21.87
2022-08-23T02:08:28.307Z,21.96
2022-08-23T02:10:57.456Z,21.72
2022-08-23T02:13:24.392Z,21.56
2022-08-23T02:15:55.174Z,21.68
2022-08-23T02:18:22.570Z,21.75
2022-08-23T02:20:52.447Z,21.66
2022-08-23T02:23:23.273Z,21.47
2022-08-23T02:25:54.189Z,21.12
2022-08-23T02:28:23.530Z,21.27
2022-08-23T02:30:54.140Z,21.31
2022-08-23T02:33:23.554Z,21.41
2022-08-23T02:35:52.584Z,21.40
2022-08-23T02:38:19.479Z,21.47
2022-08-23T02:40:52.937Z,21.30
2022-08-23T02:43:35.008Z,21.36
2022-08-23T02:46:06.593Z,21.51
2022-08-23T02:48:41.454Z,21.61
2022-08-23T02:51:14.009Z,21.72
2022-08-23T02:53:43.394Z,21.71
2022-08-23T02:56:21.286Z,21.44
2022-08-23T02:58:53.986Z,21.23
2022-08-23T03:01:37.055Z,21.23
2022-08-23T03:04:07.469Z,21.02
2022-08-23T03:06:34.947Z,21.10
2022-08-23T03:09:05.014Z,21.15
2022-08-23T03:11:32.205Z,21.17
2022-08-23T03:14:00.651Z,21.27
2022-08-23T03:16:27.833Z,21.39
2022-08-23T03:18:57.291Z,21.41
2022-08-23T03:21:24.200Z,21.51
2022-08-23T03:23:51.635Z,21.49
2022-08-23T03:26:18.634Z,21.32
2022-08-23T03:28:51.770Z,21.17
2022-08-23T03:31:22.141Z,21.41
2022-08-23T03:33:51.450Z,21.13
2022-08-23T03:36:19.086Z,21.09
2022-08-23T03:38:58.192Z,21.24
2022-08-23T03:41:25.564Z,21.31
2022-08-23T03:43:52.795Z,21.40
2022-08-23T03:46:25.973Z,21.29
2022-08-23T03:48:59.422Z,21.02
2022-08-23T03:51:31.233Z,20.87
2022-08-23T03:53:59.096Z,21.01
2022-08-23T03:56:40.280Z,20.87
2022-08-23T03:59:12.930Z,20.96
2022-08-23T04:01:39.890Z,20.96
2022-08-23T04:04:09.316Z,21.00
2022-08-23T04:06:36.402Z,21.09
2022-08-23T04:09:07.401Z,20.96
2022-08-23T04:11:34.386Z,20.94
2022-08-23T04:14:01.286Z,20.89
2022-08-23T04:16:33.375Z,20.91
2022-08-23T04:19:02.556Z,21.05
2022-08-23T04:21:29.495Z,21.06
2022-08-23T04:23:56.562Z,21.11
2022-08-23T04:26:28.377Z,20.93
2022-08-23T04:28:57.299Z,20.63
2022-08-23T04:31:26.524Z,20.59
2022-08-23T04:33:55.602Z,20.56
2022-08-23T04:36:25.744Z,20.60
2022-08-23T04:38:55.683Z,20.80
2022-08-23T04:41:41.035Z,20.83
2022-08-23T04:44:08.098Z,20.75
2022-08-23T04:46:37.501Z,21.01
2022-08-23T04:49:04.373Z,21.11
2022-08-23T04:51:33.489Z,21.24
2022-08-23T04:54:02.945Z,21.27
2022-08-23T04:56:30.529Z,21.21
2022-08-23T04:58:57.932Z,21.34
2022-08-23T05:01:25.611Z,21.43
2022-08-23T05:03:54.509Z,20.86
2022-08-23T05:06:23.311Z,20.84
2022-08-23T05:08:50.320Z,20.72
2022-08-23T05:11:19.067Z,20.95
2022-08-23T05:13:48.602Z,21.17
2022-08-23T05:16:16.116Z,21.40
2022-08-23T05:18:43.240Z,21.35
2022-08-23T05:21:16.328Z,21.15
2022-08-23T05:23:43.908Z,20.90
2022-08-23T05:26:20.630Z,20.98
2022-08-23T05:28:49.570Z,21.14
2022-08-23T05:31:26.653Z,21.22
2022-08-23T05:33:53.968Z,21.33
2022-08-23T05:36:23.950Z,21.24
2022-08-23T05:38:53.480Z,21.13
2022-08-23T05:41:35.195Z,21.30
2022-08-23T05:44:05.281Z,21.31
2022-08-23T05:46:36.716Z,21.30
2022-08-23T05:49:09.564Z,21.39
2022-08-23T05:51:38.515Z,21.42
2022-08-23T05:54:08.014Z,21.66
2022-08-23T05:56:42.601Z,21.94
2022-08-23T05:59:15.894Z,22.31
2022-08-23T06:01:43.862Z,22.21
2022-08-23T06:04:17.406Z,22.22
2022-08-23T06:06:44.833Z,22.09
2022-08-23T06:09:15.911Z,21.99
2022-08-23T06:11:52.972Z,21.96
2022-08-23T06:14:24.503Z,21.68
2022-08-23T06:16:55.797Z,21.95
2022-08-23T06:19:24.120Z,21.68
2022-08-23T06:21:52.307Z,21.82
2022-08-23T06:24:24.705Z,22.04
2022-08-23T06:26:51.688Z,22.30
2022-08-23T06:29:20.325Z,22.32
2022-08-23T06:31:50.558Z,22.49
2022-08-23T06:34:19.615Z,22.28
2022-08-23T06:36:49.585Z,22.06
2022-08-23T06:39:22.204Z,22.47
2022-08-23T06:41:51.712Z,22.43
2022-08-23T06:44:19.821Z,22.68
2022-08-23T06:46:48.766Z,22.87
2022-08-23T06:49:16.507Z,23.17
2022-08-23T06:51:49.607Z,23.14
2022-08-23T06:54:26.540Z,23.42
2022-08-23T06:56:58.335Z,23.62
2022-08-23T06:59:28.354Z,23.76
2022-08-23T07:02:07.258Z,23.95
2022-08-23T07:04:38.561Z,23.41
2022-08-23T07:07:11.619Z,23.35
2022-08-23T07:09:40.590Z,23.47
2022-08-23T07:12:08.094Z,23.38
2022-08-23T07:14:36.655Z,23.49
2022-08-23T07:17:06.482Z,23.43
2022-08-23T07:19:43.912Z,23.59
2022-08-23T07:22:15.737Z,23.49
2022-08-23T07:24:43.039Z,23.64
2022-08-23T07:27:10.035Z,23.92
2022-08-23T07:29:37.767Z,23.93
2022-08-23T07:32:08.118Z,23.56
2022-08-23T07:34:35.589Z,23.76
2022-08-23T07:37:11.466Z,24.06
2022-08-23T07:39:45.125Z,23.93
2022-08-23T07:42:23.019Z,24.24
2022-08-23T07:44:52.656Z,24.75
2022-08-23T07:47:20.722Z,24.80
2022-08-23T07:49:51.035Z,24.92
2022-08-23T07:52:17.906Z,25.21
2022-08-23T07:54:48.672Z,25.39
2022-08-23T07:57:17.647Z,25.68
2022-08-23T07:59:44.923Z,25.84
2022-08-23T08:02:15.874Z,25.96
2022-08-23T08:04:43.154Z,25.70
2022-08-23T08:07:19.380Z,25.71
2022-08-23T08:09:49.963Z,25.71
2022-08-23T08:12:17.640Z,25.50
2022-08-23T08:14:45.167Z,25.19
2022-08-23T08:17:14.616Z,25.17
2022-08-23T08:19:43.788Z,25.32
2022-08-23T08:22:10.825Z,25.68
2022-08-23T08:24:37.758Z,25.99
2022-08-23T08:27:05.574Z,26.13
2022-08-23T08:29:33.008Z,26.67
2022-08-23T08:32:00.264Z,26.31
2022-08-23T08:34:28.254Z,26.37
2022-08-23T08:36:58.930Z,26.37
2022-08-23T08:39:31.550Z,26.66
2022-08-23T08:42:10.395Z,26.50
2022-08-23T08:45:07.409Z,26.21
2022-08-23T08:47:54.523Z,26.42
2022-08-23T08:50:29.200Z,27.05
2022-08-23T08:53:09.087Z,27.29
2022-08-23T08:55:50.286Z,27.58
2022-08-23T08:58:28.999Z,27.74
2022-08-23T09:00:56.866Z,27.45
2022-08-23T09:03:33.099Z,26.90
2022-08-23T09:06:15.137Z,27.24
2022-08-23T09:08:57.119Z,27.22
2022-08-23T09:11:30.270Z,27.52
2022-08-23T09:14:43.732Z,27.55
2022-08-23T09:17:51.651Z,28.13
2022-08-23T09:20:23.181Z,28.05
2022-08-23T09:23:12.252Z,28.24
2022-08-23T09:25:39.248Z,28.68
2022-08-23T09:28:07.297Z,29.15
2022-08-23T09:30:56.604Z,29.37
2022-08-23T09:33:49.264Z,29.43
2022-08-23T09:36:25.480Z,29.42
2022-08-23T09:39:00.019Z,29.50
2022-08-23T09:41:43.605Z,29.39
2022-08-23T09:44:32.713Z,29.40
2022-08-23T09:47:17.250Z,29.72
2022-08-23T09:49:54.494Z,30.02
2022-08-23T09:52:27.730Z,29.57
2022-08-23T09:54:58.949Z,29.57
2022-08-23T09:57:29.942Z,29.50
2022-08-23T10:00:23.479Z,29.36
2022-08-23T10:02:57.853Z,29.27
2022-08-23T10:05:50.713Z,29.94
2022-08-23T10:08:35.948Z,30.49
2022-08-23T10:11:39.080Z,31.08
2022-08-23T10:14:07.085Z,30.88
2022-08-23T10:17:17.160Z,30.61
2022-08-23T10:20:25.305Z,30.37
2022-08-23T10:23:06.337Z,30.94
2022-08-23T10:25:47.367Z,31.27
2022-08-23T10:29:05.217Z,31.33
2022-08-23T10:31:47.315Z,31.34
2022-08-23T10:34:30.067Z,31.57
2022-08-23T10:37:51.689Z,31.59
2022-08-23T10:40:34.932Z,31.61
2022-08-23T10:43:36.918Z,30.81
2022-08-23T10:46:07.515Z,30.74
2022-08-23T10:48:55.195Z,30.90
2022-08-23T10:51:31.870Z,30.62
2022-08-23T10:54:13.229Z,31.76
2022-08-23T10:56:51.207Z,31.73
2022-08-23T10:59:26.749Z,31.89
2022-08-23T11:02:31.569Z,31.49
2022-08-23T11:05:20.416Z,31.92
2022-08-23T11:08:06.484Z,32.27
2022-08-23T11:10:42.020Z,31.95
2022-08-23T11:13:29.472Z,32.10
2022-08-23T11:16:23.511Z,32.06
2022-08-23T11:18:52.897Z,32.13
2022-08-23T11:21:25.709Z,32.10
2022-08-23T11:23:58.887Z,32.23
2022-08-23T11:26:29.777Z,32.16
2022-08-23T11:29:23.842Z,32.74
2022-08-23T11:32:20.257Z,33.37
2022-08-23T11:35:09.071Z,33.15
2022-08-23T11:38:05.336Z,32.82
2022-08-23T11:40:55.746Z,32.05
2022-08-23T11:43:31.497Z,32.16
2022-08-23T11:46:27.967Z,31.88
2022-08-23T11:49:25.270Z,32.43
2022-08-23T11:52:36.949Z,32.10
2022-08-23T11:55:37.581Z,31.60
2022-08-23T11:58:23.976Z,32.63
2022-08-23T12:01:08.371Z,33.42
2022-08-23T12:04:00.251Z,33.88
2022-08-23T12:06:51.165Z,32.96
2022-08-23T12:09:24.556Z,32.48
2022-08-23T12:11:57.186Z,32.60
2022-08-23T12:14:47.540Z,31.90
2022-08-23T12:17:19.248Z,32.16
2022-08-23T12:19:53.759Z,32.74
2022-08-23T12:22:29.925Z,33.83
2022-08-23T12:25:08.557Z,32.77
2022-08-23T12:27:45.882Z,32.72
2022-08-23T12:30:25.435Z,32.85
2022-08-23T12:33:04.738Z,32.90
2022-08-23T12:36:23.659Z,32.49
2022-08-23T12:39:11.754Z,32.82
2022-08-23T12:42:05.759Z,33.52
2022-08-23T12:44:38.654Z,33.81
2022-08-23T12:47:21.740Z,33.74
2022-08-23T12:50:15.105Z,34.45
2022-08-23T12:52:42.277Z,34.19
2022-08-23T12:55:19.513Z,33.59
2022-08-23T12:57:56.533Z,33.20
2022-08-23T13:00:36.658Z,33.65
2022-08-23T13:03:04.734Z,33.57
2022-08-23T13:06:05.567Z,33.31
2022-08-23T13:08:43.636Z,33.19
2022-08-23T13:11:13.509Z,33.03
2022-08-23T13:13:44.237Z,33.56
2022-08-23T13:16:54.003Z,34.26
2022-08-23T13:19:34.700Z,34.66
2022-08-23T13:22:19.996Z,34.52
2022-08-23T13:28:03.648Z,34.12
2022-08-23T13:30:59.356Z,34.34
2022-08-23T13:33:26.371Z,34.00
2022-08-23T13:36:21.276Z,33.65
2022-08-23T13:38:49.826Z,33.00
2022-08-23T13:41:38.682Z,33.20
2022-08-23T13:44:08.654Z,33.25
2022-08-23T13:46:45.830Z,33.47
2022-08-23T13:49:27.207Z,33.21
2022-08-23T13:52:38.110Z,33.01
2022-08-23T13:54:50.873Z,33.48
2022-08-23T13:57:22.920Z,33.20
2022-08-23T13:59:56.115Z,33.01
2022-08-23T14:02:29.485Z,32.80
2022-08-23T14:04:56.420Z,32.61
2022-08-23T14:07:23.498Z,32.76
2022-08-23T14:09:54.516Z,32.52
2022-08-23T14:12:27.785Z,32.18
2022-08-23T14:14:57.215Z,32.30
2022-08-23T14:17:24.663Z,32.16
2022-08-23T14:20:31.980Z,32.69
2022-08-23T14:22:40.415Z,32.87
2022-08-23T14:25:08.870Z,32.53
2022-08-23T14:27:38.869Z,32.90
2022-08-23T14:30:25.294Z,32.91
2022-08-23T14:32:58.012Z,32.03
2022-08-23T14:35:32.547Z,31.62
2022-08-23T14:38:03.491Z,32.03
2022-08-23T14:40:35.508Z,32.64
2022-08-23T14:43:03.950Z,32.73
2022-08-23T14:45:34.511Z,32.53
2022-08-23T14:48:01.849Z,32.55
2022-08-23T14:50:28.874Z,32.42
2022-08-23T14:52:58.910Z,32.40
2022-08-23T14:55:28.441Z,32.36
2022-08-23T14:57:57.825Z,31.89
2022-08-23T15:00:26.892Z,32.11
2022-08-23T15:02:56.971Z,32.58
2022-08-23T15:05:24.253Z,32.83
2022-08-23T15:07:53.455Z,32.73
2022-08-23T15:13:21.790Z,32.40
2022-08-23T15:15:55.174Z,32.40
2022-08-23T15:18:24.661Z,31.96
2022-08-23T15:20:52.538Z,31.58
2022-08-23T15:23:24.287Z,31.77
2022-08-23T15:25:51.551Z,31.94
2022-08-23T15:28:23.361Z,32.02
2022-08-23T15:30:51.513Z,31.96
2022-08-23T15:33:26.853Z,32.07
2022-08-23T15:35:58.464Z,32.58
2022-08-23T15:38:31.226Z,32.03
2022-08-23T15:41:03.824Z,31.89
2022-08-23T15:43:34.702Z,31.96
2022-08-23T15:46:17.258Z,32.02
2022-08-23T15:49:34.081Z,32.03
2022-08-23T15:52:03.817Z,31.67
2022-08-23T15:54:31.337Z,31.46
2022-08-23T15:57:00.743Z,31.38
2022-08-23T15:59:28.105Z,31.62
2022-08-23T16:01:55.011Z,31.86
2022-08-23T16:04:22.018Z,31.83
2022-08-23T16:06:48.928Z,31.29
2022-08-23T16:09:23.181Z,31.11
2022-08-23T16:11:51.565Z,30.88
2022-08-23T16:14:18.710Z,31.35
2022-08-23T16:16:48.532Z,31.24
2022-08-23T16:19:16.684Z,31.35
2022-08-23T16:21:44.254Z,31.02
2022-08-23T16:24:14.042Z,31.04
2022-08-23T16:26:46.594Z,31.26
2022-08-23T16:29:19.810Z,31.33
2022-08-23T16:31:49.036Z,31.28
2022-08-23T16:34:19.735Z,31.15
2022-08-23T16:36:52.760Z,30.88
2022-08-23T16:39:23.697Z,30.55
2022-08-23T16:41:50.864Z,30.69
2022-08-23T16:44:18.719Z,30.50
2022-08-23T16:46:46.990Z,30.49
2022-08-23T16:49:18.643Z,30.76
2022-08-23T16:51:47.583Z,30.75
2022-08-23T16:54:15.887Z,31.09
2022-08-23T16:56:44.596Z,31.27
2022-08-23T16:59:13.691Z,31.31
2022-08-23T17:01:53.989Z,30.74
2022-08-23T17:04:30.370Z,30.48
2022-08-23T17:06:59.989Z,30.50
2022-08-23T17:09:29.648Z,30.45
2022-08-23T17:11:58.973Z,30.65
2022-08-23T17:14:32.429Z,30.83
2022-08-23T17:17:00.339Z,30.88
2022-08-23T17:19:30.783Z,30.47
2022-08-23T17:21:58.591Z,30.46
2022-08-23T17:24:26.980Z,30.34
2022-08-23T17:26:54.901Z,30.20
2022-08-23T17:29:22.184Z,30.00
2022-08-23T17:31:49.963Z,29.84
2022-08-23T17:34:18.023Z,29.80
2022-08-23T17:36:53.329Z,30.08
2022-08-23T17:39:27.517Z,30.09
2022-08-23T17:41:59.651Z,30.24
2022-08-23T17:44:27.484Z,30.02
2022-08-23T17:46:55.356Z,29.79
2022-08-23T17:49:26.522Z,29.72
2022-08-23T17:51:53.978Z,29.74
2022-08-23T17:54:25.919Z,29.55
2022-08-23T17:56:53.408Z,29.50
2022-08-23T17:59:26.334Z,29.58
2022-08-23T18:01:56.128Z,29.55
2022-08-23T18:04:26.579Z,29.72
2022-08-23T18:06:56.244Z,29.68
2022-08-23T18:09:26.095Z,29.60
2022-08-23T18:11:55.390Z,29.60
2022-08-23T18:14:27.911Z,29.43
2022-08-23T18:17:01.147Z,29.25
2022-08-23T18:19:29.135Z,29.24
2022-08-23T18:21:58.588Z,29.37
2022-08-23T18:24:29.751Z,29.22
2022-08-23T18:27:21.613Z,28.90
2022-08-23T18:29:51.347Z,28.85
2022-08-23T18:32:21.232Z,28.86
2022-08-23T18:34:52.802Z,28.99
2022-08-23T18:37:23.662Z,28.97
2022-08-23T18:39:51.914Z,28.83
2022-08-23T18:42:26.423Z,28.84
2022-08-23T18:44:54.799Z,28.78
2022-08-23T18:47:23.009Z,28.70
2022-08-23T18:49:56.856Z,28.69
2022-08-23T18:52:24.958Z,28.33
2022-08-23T18:54:52.825Z,28.29
2022-08-23T18:57:21.638Z,28.22
2022-08-23T18:59:53.429Z,28.13
2022-08-23T19:02:24.353Z,28.03
2022-08-23T19:04:54.116Z,28.02
2022-08-23T19:07:22.014Z,27.99
2022-08-23T19:09:49.107Z,28.01
2022-08-23T19:12:16.493Z,27.94
2022-08-23T19:14:50.562Z,28.04
2022-08-23T19:17:17.533Z,27.89
2022-08-23T19:19:44.482Z,27.81
2022-08-23T19:22:12.784Z,27.76
2022-08-23T19:24:41.205Z,27.79
2022-08-23T19:27:12.854Z,27.65
2022-08-23T19:29:46.802Z,27.61
2022-08-23T19:32:14.987Z,27.52
2022-08-23T19:34:42.614Z,27.42
2022-08-23T19:37:10.761Z,27.30
2022-08-23T19:39:49.333Z,27.21
2022-08-23T19:42:20.547Z,27.19
2022-08-23T19:44:48.155Z,27.28
2022-08-23T19:47:19.871Z,27.04
2022-08-23T19:49:48.495Z,26.99
2022-08-23T19:52:15.650Z,27.06
2022-08-23T19:54:42.541Z,26.81
2022-08-23T19:57:10.056Z,26.53
2022-08-23T19:59:39.281Z,26.47
2022-08-23T20:02:14.052Z,26.62
2022-08-23T20:04:41.618Z,26.55
2022-08-23T20:07:09.578Z,26.63
2022-08-23T20:09:36.638Z,26.47
2022-08-23T20:12:05.222Z,26.42
2022-08-23T20:14:33.233Z,26.37
2022-08-23T20:17:04.343Z,26.12
2022-08-23T20:19:31.479Z,26.02
2022-08-23T20:22:19.284Z,26.17
2022-08-23T20:24:53.063Z,26.17
2022-08-23T20:27:24.157Z,26.05
2022-08-23T20:30:00.066Z,26.01
2022-08-23T20:32:28.301Z,26.02
2022-08-23T20:34:55.310Z,25.96
2022-08-23T20:37:22.766Z,25.98
2022-08-23T20:39:50.171Z,25.77
2022-08-23T20:42:17.108Z,25.74
2022-08-23T20:44:44.559Z,25.57
2022-08-23T20:47:14.769Z,25.57
2022-08-23T20:49:44.902Z,25.58
2022-08-23T20:52:12.723Z,25.70
2022-08-23T20:54:43.307Z,25.60
2022-08-23T20:57:10.717Z,25.53
2022-08-23T20:59:44.489Z,25.49
2022-08-23T21:02:14.754Z,25.39
2022-08-23T21:04:42.343Z,25.36
2022-08-23T21:07:09.545Z,25.05
2022-08-23T21:09:36.626Z,25.25
2022-08-23T21:12:07.687Z,25.21
2022-08-23T21:14:36.243Z,25.21
2022-08-23T21:17:03.207Z,25.13
2022-08-23T21:19:33.074Z,25.31
2022-08-23T21:22:00.083Z,25.10
2022-08-23T21:24:29.998Z,25.09
2022-08-23T21:26:56.949Z,25.08
2022-08-23T21:29:23.846Z,24.97
2022-08-23T21:31:50.794Z,24.93
2022-08-23T21:34:20.304Z,24.96
2022-08-23T21:36:47.290Z,25.04
2022-08-23T21:39:17.182Z,24.92
2022-08-23T21:41:50.950Z,24.84
2022-08-23T21:44:22.255Z,24.91
2022-08-23T21:46:49.462Z,24.78
2022-08-23T21:49:17.137Z,24.60
2022-08-23T21:51:49.804Z,24.40
2022-08-23T21:54:20.030Z,24.60
2022-08-23T21:56:47.411Z,24.75
2022-08-23T21:59:18.049Z,24.58
2022-08-23T22:01:47.694Z,24.43
2022-08-23T22:04:18.734Z,24.50
2022-08-23T22:06:49.890Z,24.21
2022-08-23T22:09:31.090Z,24.37
2022-08-23T22:12:01.308Z,24.22
2022-08-23T22:14:32.267Z,23.97
2022-08-23T22:17:02.379Z,24.09
2022-08-23T22:19:32.389Z,23.86
2022-08-23T22:22:02.278Z,23.72
2022-08-23T22:24:31.784Z,23.68
2022-08-23T22:26:58.687Z,23.69
2022-08-23T22:29:25.683Z,23.83
2022-08-23T22:31:52.850Z,23.89
2022-08-23T22:34:22.814Z,23.89
2022-08-23T22:36:52.427Z,23.70
2022-08-23T22:39:22.904Z,23.70
2022-08-23T22:41:50.340Z,23.63
2022-08-23T22:44:17.556Z,23.75
2022-08-23T22:46:47.093Z,23.88
2022-08-23T22:49:19.269Z,23.89
2022-08-23T22:51:46.160Z,23.78
2022-08-23T22:54:16.047Z,23.85
2022-08-23T22:56:50.786Z,23.81
2022-08-23T22:59:25.219Z,24.02
2022-08-23T23:01:58.999Z,23.65
2022-08-23T23:04:28.493Z,23.71
2022-08-23T23:06:56.426Z,23.78
2022-08-23T23:09:26.487Z,23.95
2022-08-23T23:11:55.088Z,24.06
2022-08-23T23:14:22.824Z,23.99
2022-08-23T23:16:50.570Z,24.04
2022-08-23T23:19:36.511Z,23.74
2022-08-23T23:22:04.501Z,23.86
2022-08-23T23:24:36.934Z,23.96
2022-08-23T23:27:06.526Z,23.96
2022-08-23T23:29:34.210Z,24.06
2022-08-23T23:32:03.715Z,24.04
2022-08-23T23:34:32.892Z,24.07
2022-08-23T23:37:05.107Z,24.08
2022-08-23T23:39:34.695Z,23.96
2022-08-23T23:42:06.150Z,24.01
2022-08-23T23:44:35.636Z,24.10
2022-08-23T23:47:02.603Z,24.17
2022-08-23T23:49:32.450Z,24.15
2022-08-23T23:51:59.953Z,24.13
2022-08-23T23:54:26.941Z,24.13
2022-08-23T23:56:54.039Z,24.08
2022-08-23T23:59:24.191Z,23.92
